sensor_id;sensor_type;location;lat;lon;timestamp;P1;durP1;ratioP1;P2;durP2;ratioP2
68025;SDS011;54819;48.030;14.710;2023-04-22T00:00:46;5.40;;;3.20;;
68025;SDS011;54819;48.030;14.710;2023-04-22T00:03:13;7.20;;;3.50;;
68025;SDS011;54819;48.030;14.710;2023-04-22T00:05:40;10.30;;;4.50;;
68025;SDS011;54819;48.030;14.710;2023-04-22T00:08:08;6.80;;;4.00;;
68025;SDS011;54819;48.030;14.710;2023-04-22T00:10:34;7.80;;;3.20;;
68025;SDS011;54819;48.030;14.710;2023-04-22T00:13:01;5.90;;;3.30;;
68025;SDS011;54819;48.030;14.710;2023-04-22T00:15:28;9.50;;;4.00;;
68025;SDS011;54819;48.030;14.710;2023-04-22T00:17:54;8.20;;;3.60;;
68025;SDS011;54819;48.030;14.710;2023-04-22T00:20:23;6.30;;;3.30;;
68025;SDS011;54819;48.030;14.710;2023-04-22T00:25:17;15.10;;;4.90;;
68025;SDS011;54819;48.030;14.710;2023-04-22T00:27:44;14.90;;;5.60;;
68025;SDS011;54819;48.030;14.710;2023-04-22T00:30:11;12.50;;;5.40;;
68025;SDS011;54819;48.030;14.710;2023-04-22T00:32:38;13.90;;;5.80;;
68025;SDS011;54819;48.030;14.710;2023-04-22T00:35:06;11.50;;;5.20;;
68025;SDS011;54819;48.030;14.710;2023-04-22T00:37:33;10.70;;;5.00;;
68025;SDS011;54819;48.030;14.710;2023-04-22T00:40:00;8.10;;;4.70;;
68025;SDS011;54819;48.030;14.710;2023-04-22T00:42:27;7.30;;;4.00;;
68025;SDS011;54819;48.030;14.710;2023-04-22T00:44:54;8.20;;;4.20;;
68025;SDS011;54819;48.030;14.710;2023-04-22T00:47:21;11.30;;;4.70;;
68025;SDS011;54819;48.030;14.710;2023-04-22T00:49:53;9.20;;;4.20;;
68025;SDS011;54819;48.030;14.710;2023-04-22T00:54:47;21.80;;;8.70;;
68025;SDS011;54819;48.030;14.710;2023-04-22T00:57:16;27.20;;;9.70;;
68025;SDS011;54819;48.030;14.710;2023-04-22T00:59:44;16.90;;;7.40;;
68025;SDS011;54819;48.030;14.710;2023-04-22T01:02:11;19.70;;;7.80;;
68025;SDS011;54819;48.030;14.710;2023-04-22T01:04:38;13.00;;;5.90;;
68025;SDS011;54819;48.030;14.710;2023-04-22T01:07:05;14.60;;;5.50;;
68025;SDS011;54819;48.030;14.710;2023-04-22T01:09:33;13.00;;;5.60;;
68025;SDS011;54819;48.030;14.710;2023-04-22T01:12:00;14.60;;;5.50;;
68025;SDS011;54819;48.030;14.710;2023-04-22T01:14:27;8.40;;;3.90;;
68025;SDS011;54819;48.030;14.710;2023-04-22T01:16:56;10.40;;;4.50;;
68025;SDS011;54819;48.030;14.710;2023-04-22T01:19:23;7.30;;;4.00;;
68025;SDS011;54819;48.030;14.710;2023-04-22T01:21:52;6.60;;;3.20;;
68025;SDS011;54819;48.030;14.710;2023-04-22T01:24:19;5.30;;;3.00;;
68025;SDS011;54819;48.030;14.710;2023-04-22T01:26:48;5.70;;;2.90;;
68025;SDS011;54819;48.030;14.710;2023-04-22T01:29:14;6.50;;;3.20;;
68025;SDS011;54819;48.030;14.710;2023-04-22T01:31:41;5.50;;;3.10;;
68025;SDS011;54819;48.030;14.710;2023-04-22T01:34:09;6.80;;;3.70;;
68025;SDS011;54819;48.030;14.710;2023-04-22T01:36:37;6.30;;;3.40;;
68025;SDS011;54819;48.030;14.710;2023-04-22T01:39:03;6.00;;;3.20;;
68025;SDS011;54819;48.030;14.710;2023-04-22T01:41:30;5.60;;;3.10;;
68025;SDS011;54819;48.030;14.710;2023-04-22T01:43:57;5.10;;;3.40;;
68025;SDS011;54819;48.030;14.710;2023-04-22T01:46:26;9.10;;;3.80;;
68025;SDS011;54819;48.030;14.710;2023-04-22T01:48:53;6.40;;;2.90;;
68025;SDS011;54819;48.030;14.710;2023-04-22T01:51:21;5.70;;;3.10;;
68025;SDS011;54819;48.030;14.710;2023-04-22T01:53:49;4.60;;;2.70;;
68025;SDS011;54819;48.030;14.710;2023-04-22T01:56:16;5.10;;;3.00;;
68025;SDS011;54819;48.030;14.710;2023-04-22T01:58:43;7.10;;;3.70;;
68025;SDS011;54819;48.030;14.710;2023-04-22T02:01:12;7.20;;;3.40;;
68025;SDS011;54819;48.030;14.710;2023-04-22T02:03:39;8.30;;;4.00;;
68025;SDS011;54819;48.030;14.710;2023-04-22T02:06:09;7.00;;;4.10;;
68025;SDS011;54819;48.030;14.710;2023-04-22T02:08:35;8.20;;;4.20;;
68025;SDS011;54819;48.030;14.710;2023-04-22T02:11:02;6.20;;;3.90;;
68025;SDS011;54819;48.030;14.710;2023-04-22T02:13:36;7.40;;;4.40;;
68025;SDS011;54819;48.030;14.710;2023-04-22T02:16:04;7.70;;;3.60;;
68025;SDS011;54819;48.030;14.710;2023-04-22T02:18:32;9.20;;;4.20;;
68025;SDS011;54819;48.030;14.710;2023-04-22T02:20:59;5.50;;;3.10;;
68025;SDS011;54819;48.030;14.710;2023-04-22T02:23:26;4.80;;;2.90;;
68025;SDS011;54819;48.030;14.710;2023-04-22T02:25:54;5.50;;;2.80;;
68025;SDS011;54819;48.030;14.710;2023-04-22T02:30:48;5.80;;;3.00;;
68025;SDS011;54819;48.030;14.710;2023-04-22T02:33:15;5.00;;;2.90;;
68025;SDS011;54819;48.030;14.710;2023-04-22T02:35:41;6.30;;;3.90;;
68025;SDS011;54819;48.030;14.710;2023-04-22T02:38:09;9.80;;;5.60;;
68025;SDS011;54819;48.030;14.710;2023-04-22T02:43:03;7.10;;;4.00;;
68025;SDS011;54819;48.030;14.710;2023-04-22T02:45:30;7.40;;;3.80;;
68025;SDS011;54819;48.030;14.710;2023-04-22T02:47:57;9.70;;;3.70;;
68025;SDS011;54819;48.030;14.710;2023-04-22T02:50:23;8.10;;;4.30;;
68025;SDS011;54819;48.030;14.710;2023-04-22T02:52:50;8.40;;;4.30;;
68025;SDS011;54819;48.030;14.710;2023-04-22T02:55:17;6.40;;;4.00;;
68025;SDS011;54819;48.030;14.710;2023-04-22T02:57:44;6.10;;;3.40;;
68025;SDS011;54819;48.030;14.710;2023-04-22T03:00:11;6.90;;;3.00;;
68025;SDS011;54819;48.030;14.710;2023-04-22T03:02:38;5.10;;;2.70;;
68025;SDS011;54819;48.030;14.710;2023-04-22T03:05:13;4.80;;;2.50;;
68025;SDS011;54819;48.030;14.710;2023-04-22T03:07:40;6.30;;;3.30;;
68025;SDS011;54819;48.030;14.710;2023-04-22T03:10:07;7.10;;;3.50;;
68025;SDS011;54819;48.030;14.710;2023-04-22T03:12:34;6.20;;;3.30;;
68025;SDS011;54819;48.030;14.710;2023-04-22T03:15:02;6.40;;;3.30;;
68025;SDS011;54819;48.030;14.710;2023-04-22T03:17:30;7.50;;;3.60;;
68025;SDS011;54819;48.030;14.710;2023-04-22T03:19:58;6.30;;;3.60;;
68025;SDS011;54819;48.030;14.710;2023-04-22T03:22:24;7.10;;;3.10;;
68025;SDS011;54819;48.030;14.710;2023-04-22T03:27:19;6.60;;;3.50;;
68025;SDS011;54819;48.030;14.710;2023-04-22T03:29:46;5.80;;;3.40;;
68025;SDS011;54819;48.030;14.710;2023-04-22T03:32:13;8.80;;;3.50;;
68025;SDS011;54819;48.030;14.710;2023-04-22T03:34:40;7.90;;;3.80;;
68025;SDS011;54819;48.030;14.710;2023-04-22T03:37:08;7.50;;;4.50;;
68025;SDS011;54819;48.030;14.710;2023-04-22T03:42:03;8.40;;;4.20;;
68025;SDS011;54819;48.030;14.710;2023-04-22T03:44:30;8.30;;;3.80;;
68025;SDS011;54819;48.030;14.710;2023-04-22T03:46:57;7.40;;;4.00;;
68025;SDS011;54819;48.030;14.710;2023-04-22T03:49:28;6.30;;;3.50;;
68025;SDS011;54819;48.030;14.710;2023-04-22T03:51:55;5.20;;;2.80;;
68025;SDS011;54819;48.030;14.710;2023-04-22T03:54:23;8.20;;;4.00;;
68025;SDS011;54819;48.030;14.710;2023-04-22T03:56:51;8.60;;;3.70;;
68025;SDS011;54819;48.030;14.710;2023-04-22T03:59:19;5.80;;;2.70;;
68025;SDS011;54819;48.030;14.710;2023-04-22T04:01:46;7.20;;;2.70;;
68025;SDS011;54819;48.030;14.710;2023-04-22T04:04:14;7.50;;;2.80;;
68025;SDS011;54819;48.030;14.710;2023-04-22T04:06:49;6.80;;;3.60;;
68025;SDS011;54819;48.030;14.710;2023-04-22T04:09:16;6.20;;;3.30;;
68025;SDS011;54819;48.030;14.710;2023-04-22T04:11:44;8.80;;;4.60;;
68025;SDS011;54819;48.030;14.710;2023-04-22T04:14:11;7.30;;;4.00;;
68025;SDS011;54819;48.030;14.710;2023-04-22T04:16:44;8.00;;;3.90;;
68025;SDS011;54819;48.030;14.710;2023-04-22T04:19:16;6.90;;;3.20;;
68025;SDS011;54819;48.030;14.710;2023-04-22T04:21:42;6.90;;;3.20;;
68025;SDS011;54819;48.030;14.710;2023-04-22T04:24:09;5.30;;;2.90;;
68025;SDS011;54819;48.030;14.710;2023-04-22T04:26:40;5.40;;;2.90;;
68025;SDS011;54819;48.030;14.710;2023-04-22T04:29:12;7.00;;;3.40;;
68025;SDS011;54819;48.030;14.710;2023-04-22T04:31:41;7.80;;;3.70;;
68025;SDS011;54819;48.030;14.710;2023-04-22T04:34:08;7.30;;;3.30;;
68025;SDS011;54819;48.030;14.710;2023-04-22T04:36:35;6.60;;;3.40;;
68025;SDS011;54819;48.030;14.710;2023-04-22T04:39:26;6.30;;;3.10;;
68025;SDS011;54819;48.030;14.710;2023-04-22T04:41:55;8.60;;;4.20;;
68025;SDS011;54819;48.030;14.710;2023-04-22T04:44:27;6.10;;;3.20;;
68025;SDS011;54819;48.030;14.710;2023-04-22T04:46:57;5.10;;;3.00;;
68025;SDS011;54819;48.030;14.710;2023-04-22T04:49:25;7.00;;;3.50;;
68025;SDS011;54819;48.030;14.710;2023-04-22T04:51:58;6.20;;;3.60;;
68025;SDS011;54819;48.030;14.710;2023-04-22T04:54:27;6.50;;;3.70;;
68025;SDS011;54819;48.030;14.710;2023-04-22T04:56:55;7.00;;;3.40;;
68025;SDS011;54819;48.030;14.710;2023-04-22T04:59:22;7.20;;;3.50;;
68025;SDS011;54819;48.030;14.710;2023-04-22T05:01:49;6.70;;;3.50;;
68025;SDS011;54819;48.030;14.710;2023-04-22T05:04:16;9.00;;;3.60;;
68025;SDS011;54819;48.030;14.710;2023-04-22T05:06:44;6.20;;;4.00;;
68025;SDS011;54819;48.030;14.710;2023-04-22T05:11:39;7.40;;;3.90;;
68025;SDS011;54819;48.030;14.710;2023-04-22T05:14:17;8.40;;;3.90;;
68025;SDS011;54819;48.030;14.710;2023-04-22T05:16:44;6.80;;;4.10;;
68025;SDS011;54819;48.030;14.710;2023-04-22T05:19:12;6.80;;;4.20;;
68025;SDS011;54819;48.030;14.710;2023-04-22T05:21:39;6.30;;;4.20;;
68025;SDS011;54819;48.030;14.710;2023-04-22T05:24:06;11.20;;;4.90;;
68025;SDS011;54819;48.030;14.710;2023-04-22T05:26:33;10.50;;;5.40;;
68025;SDS011;54819;48.030;14.710;2023-04-22T05:29:00;8.70;;;4.70;;
68025;SDS011;54819;48.030;14.710;2023-04-22T05:31:27;8.00;;;4.30;;
68025;SDS011;54819;48.030;14.710;2023-04-22T05:33:55;9.20;;;4.50;;
68025;SDS011;54819;48.030;14.710;2023-04-22T05:36:22;5.70;;;3.50;;
68025;SDS011;54819;48.030;14.710;2023-04-22T05:38:49;7.20;;;3.80;;
68025;SDS011;54819;48.030;14.710;2023-04-22T05:41:15;10.70;;;3.40;;
68025;SDS011;54819;48.030;14.710;2023-04-22T05:43:42;6.90;;;3.60;;
68025;SDS011;54819;48.030;14.710;2023-04-22T05:46:13;7.40;;;3.90;;
68025;SDS011;54819;48.030;14.710;2023-04-22T05:48:41;8.60;;;4.80;;
68025;SDS011;54819;48.030;14.710;2023-04-22T05:51:14;9.10;;;4.50;;
68025;SDS011;54819;48.030;14.710;2023-04-22T05:53:41;7.50;;;4.30;;
68025;SDS011;54819;48.030;14.710;2023-04-22T05:56:09;9.10;;;4.90;;
68025;SDS011;54819;48.030;14.710;2023-04-22T05:58:35;7.20;;;3.90;;
68025;SDS011;54819;48.030;14.710;2023-04-22T06:01:10;6.60;;;4.00;;
68025;SDS011;54819;48.030;14.710;2023-04-22T06:03:45;6.50;;;3.90;;
68025;SDS011;54819;48.030;14.710;2023-04-22T06:06:12;11.30;;;4.20;;
68025;SDS011;54819;48.030;14.710;2023-04-22T06:08:41;7.40;;;3.90;;
68025;SDS011;54819;48.030;14.710;2023-04-22T06:11:09;6.10;;;3.50;;
68025;SDS011;54819;48.030;14.710;2023-04-22T06:16:05;16.60;;;4.70;;
68025;SDS011;54819;48.030;14.710;2023-04-22T06:18:36;7.80;;;4.00;;
68025;SDS011;54819;48.030;14.710;2023-04-22T06:21:06;10.40;;;6.40;;
68025;SDS011;54819;48.030;14.710;2023-04-22T06:23:35;7.40;;;4.00;;
68025;SDS011;54819;48.030;14.710;2023-04-22T06:26:02;7.70;;;4.60;;
68025;SDS011;54819;48.030;14.710;2023-04-22T06:28:29;10.00;;;4.30;;
68025;SDS011;54819;48.030;14.710;2023-04-22T06:30:59;10.00;;;4.40;;
68025;SDS011;54819;48.030;14.710;2023-04-22T06:33:27;9.20;;;4.40;;
68025;SDS011;54819;48.030;14.710;2023-04-22T06:35:54;5.80;;;3.50;;
68025;SDS011;54819;48.030;14.710;2023-04-22T06:38:21;7.10;;;4.30;;
68025;SDS011;54819;48.030;14.710;2023-04-22T06:41:08;10.30;;;4.30;;
68025;SDS011;54819;48.030;14.710;2023-04-22T06:43:38;6.90;;;3.70;;
68025;SDS011;54819;48.030;14.710;2023-04-22T06:46:08;5.40;;;3.50;;
68025;SDS011;54819;48.030;14.710;2023-04-22T06:51:48;6.00;;;3.20;;
68025;SDS011;54819;48.030;14.710;2023-04-22T06:54:15;9.30;;;4.00;;
68025;SDS011;54819;48.030;14.710;2023-04-22T06:56:42;8.00;;;4.10;;
68025;SDS011;54819;48.030;14.710;2023-04-22T06:59:09;9.20;;;4.20;;
68025;SDS011;54819;48.030;14.710;2023-04-22T07:01:36;7.00;;;3.70;;
68025;SDS011;54819;48.030;14.710;2023-04-22T07:04:03;7.80;;;4.30;;
68025;SDS011;54819;48.030;14.710;2023-04-22T07:06:29;8.30;;;3.80;;
68025;SDS011;54819;48.030;14.710;2023-04-22T07:08:56;6.10;;;3.90;;
68025;SDS011;54819;48.030;14.710;2023-04-22T07:11:23;6.80;;;3.90;;
68025;SDS011;54819;48.030;14.710;2023-04-22T07:14:12;6.80;;;3.70;;
68025;SDS011;54819;48.030;14.710;2023-04-22T07:16:39;8.30;;;4.60;;
68025;SDS011;54819;48.030;14.710;2023-04-22T07:19:06;7.60;;;3.70;;
68025;SDS011;54819;48.030;14.710;2023-04-22T07:21:33;6.20;;;3.50;;
68025;SDS011;54819;48.030;14.710;2023-04-22T07:23:59;10.20;;;3.90;;
68025;SDS011;54819;48.030;14.710;2023-04-22T07:26:26;9.80;;;3.90;;
68025;SDS011;54819;48.030;14.710;2023-04-22T07:28:53;8.20;;;4.60;;
68025;SDS011;54819;48.030;14.710;2023-04-22T07:31:19;8.70;;;3.80;;
68025;SDS011;54819;48.030;14.710;2023-04-22T07:33:46;8.80;;;4.20;;
68025;SDS011;54819;48.030;14.710;2023-04-22T07:36:12;9.60;;;4.40;;
68025;SDS011;54819;48.030;14.710;2023-04-22T07:38:39;8.00;;;4.20;;
68025;SDS011;54819;48.030;14.710;2023-04-22T07:41:06;8.50;;;5.10;;
68025;SDS011;54819;48.030;14.710;2023-04-22T07:43:32;11.00;;;4.70;;
68025;SDS011;54819;48.030;14.710;2023-04-22T07:45:59;10.60;;;4.90;;
68025;SDS011;54819;48.030;14.710;2023-04-22T07:48:26;8.20;;;4.40;;
68025;SDS011;54819;48.030;14.710;2023-04-22T07:50:52;9.80;;;4.60;;
68025;SDS011;54819;48.030;14.710;2023-04-22T07:53:19;10.50;;;5.00;;
68025;SDS011;54819;48.030;14.710;2023-04-22T07:55:46;8.80;;;4.50;;
68025;SDS011;54819;48.030;14.710;2023-04-22T07:58:15;9.00;;;4.90;;
68025;SDS011;54819;48.030;14.710;2023-04-22T08:00:42;8.80;;;4.70;;
68025;SDS011;54819;48.030;14.710;2023-04-22T08:03:09;11.30;;;5.30;;
68025;SDS011;54819;48.030;14.710;2023-04-22T08:05:36;10.00;;;4.90;;
68025;SDS011;54819;48.030;14.710;2023-04-22T08:08:04;11.10;;;4.50;;
68025;SDS011;54819;48.030;14.710;2023-04-22T08:10:31;11.50;;;4.50;;
68025;SDS011;54819;48.030;14.710;2023-04-22T08:12:58;9.80;;;4.40;;
68025;SDS011;54819;48.030;14.710;2023-04-22T08:15:25;10.00;;;4.50;;
68025;SDS011;54819;48.030;14.710;2023-04-22T08:17:52;10.90;;;5.30;;
68025;SDS011;54819;48.030;14.710;2023-04-22T08:20:19;6.90;;;3.90;;
68025;SDS011;54819;48.030;14.710;2023-04-22T08:22:46;10.50;;;4.80;;
68025;SDS011;54819;48.030;14.710;2023-04-22T08:25:12;9.70;;;4.10;;
68025;SDS011;54819;48.030;14.710;2023-04-22T08:27:39;10.20;;;4.70;;
68025;SDS011;54819;48.030;14.710;2023-04-22T08:30:06;8.60;;;4.30;;
68025;SDS011;54819;48.030;14.710;2023-04-22T08:32:34;9.00;;;4.50;;
68025;SDS011;54819;48.030;14.710;2023-04-22T08:35:00;11.80;;;4.50;;
68025;SDS011;54819;48.030;14.710;2023-04-22T08:37:31;9.50;;;4.60;;
68025;SDS011;54819;48.030;14.710;2023-04-22T08:39:58;8.30;;;4.40;;
68025;SDS011;54819;48.030;14.710;2023-04-22T08:42:25;9.80;;;5.30;;
68025;SDS011;54819;48.030;14.710;2023-04-22T08:44:53;11.60;;;5.20;;
68025;SDS011;54819;48.030;14.710;2023-04-22T08:47:20;8.40;;;4.00;;
68025;SDS011;54819;48.030;14.710;2023-04-22T08:49:49;9.10;;;5.60;;
68025;SDS011;54819;48.030;14.710;2023-04-22T08:52:18;7.70;;;4.30;;
68025;SDS011;54819;48.030;14.710;2023-04-22T08:54:48;13.00;;;4.70;;
68025;SDS011;54819;48.030;14.710;2023-04-22T08:57:16;10.00;;;5.00;;
68025;SDS011;54819;48.030;14.710;2023-04-22T08:59:44;8.70;;;4.40;;
68025;SDS011;54819;48.030;14.710;2023-04-22T09:02:19;8.40;;;4.00;;
68025;SDS011;54819;48.030;14.710;2023-04-22T09:04:48;9.20;;;4.30;;
68025;SDS011;54819;48.030;14.710;2023-04-22T09:07:25;9.50;;;4.40;;
68025;SDS011;54819;48.030;14.710;2023-04-22T09:09:54;7.60;;;3.80;;
68025;SDS011;54819;48.030;14.710;2023-04-22T09:12:22;8.70;;;4.50;;
68025;SDS011;54819;48.030;14.710;2023-04-22T09:14:51;6.50;;;3.60;;
68025;SDS011;54819;48.030;14.710;2023-04-22T09:17:30;10.90;;;4.20;;
68025;SDS011;54819;48.030;14.710;2023-04-22T09:20:00;9.80;;;5.10;;
68025;SDS011;54819;48.030;14.710;2023-04-22T09:22:29;8.90;;;4.40;;
68025;SDS011;54819;48.030;14.710;2023-04-22T09:25:21;8.90;;;4.20;;
68025;SDS011;54819;48.030;14.710;2023-04-22T09:27:55;8.80;;;4.20;;
68025;SDS011;54819;48.030;14.710;2023-04-22T09:30:33;10.60;;;4.40;;
68025;SDS011;54819;48.030;14.710;2023-04-22T09:33:05;8.40;;;4.70;;
68025;SDS011;54819;48.030;14.710;2023-04-22T09:35:38;11.60;;;4.30;;
68025;SDS011;54819;48.030;14.710;2023-04-22T09:38:07;10.10;;;5.30;;
68025;SDS011;54819;48.030;14.710;2023-04-22T09:40:39;9.20;;;4.50;;
68025;SDS011;54819;48.030;14.710;2023-04-22T09:43:08;8.20;;;4.60;;
68025;SDS011;54819;48.030;14.710;2023-04-22T09:45:40;9.20;;;3.80;;
68025;SDS011;54819;48.030;14.710;2023-04-22T09:48:16;10.60;;;4.00;;
68025;SDS011;54819;48.030;14.710;2023-04-22T09:50:47;7.50;;;4.10;;
68025;SDS011;54819;48.030;14.710;2023-04-22T09:53:18;6.70;;;4.50;;
68025;SDS011;54819;48.030;14.710;2023-04-22T09:55:49;9.90;;;4.10;;
68025;SDS011;54819;48.030;14.710;2023-04-22T09:58:20;6.40;;;3.90;;
68025;SDS011;54819;48.030;14.710;2023-04-22T10:00:52;12.70;;;6.00;;
68025;SDS011;54819;48.030;14.710;2023-04-22T10:03:21;9.00;;;4.60;;
68025;SDS011;54819;48.030;14.710;2023-04-22T10:05:48;10.10;;;4.50;;
68025;SDS011;54819;48.030;14.710;2023-04-22T10:08:15;8.80;;;4.30;;
68025;SDS011;54819;48.030;14.710;2023-04-22T10:10:43;9.00;;;4.40;;
68025;SDS011;54819;48.030;14.710;2023-04-22T10:13:10;5.60;;;3.90;;
68025;SDS011;54819;48.030;14.710;2023-04-22T10:15:39;8.90;;;4.30;;
68025;SDS011;54819;48.030;14.710;2023-04-22T10:18:11;8.40;;;4.10;;
68025;SDS011;54819;48.030;14.710;2023-04-22T10:20:42;8.60;;;4.20;;
68025;SDS011;54819;48.030;14.710;2023-04-22T10:23:18;6.90;;;4.20;;
68025;SDS011;54819;48.030;14.710;2023-04-22T10:25:48;11.20;;;4.50;;
68025;SDS011;54819;48.030;14.710;2023-04-22T10:28:17;8.40;;;4.40;;
68025;SDS011;54819;48.030;14.710;2023-04-22T10:30:45;10.10;;;5.00;;
68025;SDS011;54819;48.030;14.710;2023-04-22T10:36:16;10.40;;;4.20;;
68025;SDS011;54819;48.030;14.710;2023-04-22T10:41:21;10.30;;;3.80;;
68025;SDS011;54819;48.030;14.710;2023-04-22T10:43:57;8.40;;;4.00;;
68025;SDS011;54819;48.030;14.710;2023-04-22T10:49:19;8.10;;;3.80;;
68025;SDS011;54819;48.030;14.710;2023-04-22T10:51:49;5.80;;;3.20;;
68025;SDS011;54819;48.030;14.710;2023-04-22T10:59:47;9.20;;;3.70;;
68025;SDS011;54819;48.030;14.710;2023-04-22T11:02:19;8.00;;;3.30;;
68025;SDS011;54819;48.030;14.710;2023-04-22T11:04:47;8.00;;;3.80;;
68025;SDS011;54819;48.030;14.710;2023-04-22T11:09:49;6.30;;;3.50;;
68025;SDS011;54819;48.030;14.710;2023-04-22T11:15:15;4.90;;;3.20;;
68025;SDS011;54819;48.030;14.710;2023-04-22T11:17:49;8.20;;;4.10;;
68025;SDS011;54819;48.030;14.710;2023-04-22T11:20:18;8.80;;;4.20;;
68025;SDS011;54819;48.030;14.710;2023-04-22T11:22:47;6.80;;;3.70;;
68025;SDS011;54819;48.030;14.710;2023-04-22T11:25:17;5.60;;;3.50;;
68025;SDS011;54819;48.030;14.710;2023-04-22T11:27:45;7.80;;;3.40;;
68025;SDS011;54819;48.030;14.710;2023-04-22T11:32:44;4.40;;;2.90;;
68025;SDS011;54819;48.030;14.710;2023-04-22T11:35:22;5.50;;;3.00;;
68025;SDS011;54819;48.030;14.710;2023-04-22T11:37:57;7.50;;;3.70;;
68025;SDS011;54819;48.030;14.710;2023-04-22T11:43:07;6.20;;;2.70;;
68025;SDS011;54819;48.030;14.710;2023-04-22T11:45:36;6.20;;;3.00;;
68025;SDS011;54819;48.030;14.710;2023-04-22T11:48:07;5.20;;;3.10;;
68025;SDS011;54819;48.030;14.710;2023-04-22T11:50:38;6.30;;;3.30;;
68025;SDS011;54819;48.030;14.710;2023-04-22T11:53:19;6.10;;;3.10;;
68025;SDS011;54819;48.030;14.710;2023-04-22T11:55:50;7.60;;;4.00;;
68025;SDS011;54819;48.030;14.710;2023-04-22T11:58:23;5.00;;;2.60;;
68025;SDS011;54819;48.030;14.710;2023-04-22T12:00:53;6.30;;;2.80;;
68025;SDS011;54819;48.030;14.710;2023-04-22T12:03:23;6.60;;;2.80;;
68025;SDS011;54819;48.030;14.710;2023-04-22T12:05:59;5.60;;;2.60;;
68025;SDS011;54819;48.030;14.710;2023-04-22T12:08:36;4.80;;;2.50;;
68025;SDS011;54819;48.030;14.710;2023-04-22T12:11:11;5.80;;;2.60;;
68025;SDS011;54819;48.030;14.710;2023-04-22T12:16:11;5.80;;;2.80;;
68025;SDS011;54819;48.030;14.710;2023-04-22T12:18:53;4.10;;;2.80;;
68025;SDS011;54819;48.030;14.710;2023-04-22T12:21:25;5.80;;;2.50;;
68025;SDS011;54819;48.030;14.710;2023-04-22T12:24:01;4.10;;;2.90;;
68025;SDS011;54819;48.030;14.710;2023-04-22T12:26:33;4.60;;;2.30;;
68025;SDS011;54819;48.030;14.710;2023-04-22T12:29:00;4.40;;;2.50;;
68025;SDS011;54819;48.030;14.710;2023-04-22T12:31:27;4.90;;;3.10;;
68025;SDS011;54819;48.030;14.710;2023-04-22T12:33:54;4.00;;;2.20;;
68025;SDS011;54819;48.030;14.710;2023-04-22T12:36:21;4.90;;;2.30;;
68025;SDS011;54819;48.030;14.710;2023-04-22T12:41:16;5.90;;;2.70;;
68025;SDS011;54819;48.030;14.710;2023-04-22T12:43:43;7.00;;;2.20;;
68025;SDS011;54819;48.030;14.710;2023-04-22T12:46:09;4.80;;;2.50;;
68025;SDS011;54819;48.030;14.710;2023-04-22T12:48:36;4.80;;;2.10;;
68025;SDS011;54819;48.030;14.710;2023-04-22T12:51:04;4.50;;;2.40;;
68025;SDS011;54819;48.030;14.710;2023-04-22T12:53:32;4.90;;;2.20;;
68025;SDS011;54819;48.030;14.710;2023-04-22T12:55:59;4.40;;;2.60;;
68025;SDS011;54819;48.030;14.710;2023-04-22T12:58:26;6.80;;;2.40;;
68025;SDS011;54819;48.030;14.710;2023-04-22T13:00:52;5.50;;;2.30;;
68025;SDS011;54819;48.030;14.710;2023-04-22T13:03:19;4.40;;;2.80;;
68025;SDS011;54819;48.030;14.710;2023-04-22T13:05:46;4.00;;;2.10;;
68025;SDS011;54819;48.030;14.710;2023-04-22T13:08:13;6.20;;;2.80;;
68025;SDS011;54819;48.030;14.710;2023-04-22T13:10:40;3.90;;;2.10;;
68025;SDS011;54819;48.030;14.710;2023-04-22T13:13:07;5.30;;;2.70;;
68025;SDS011;54819;48.030;14.710;2023-04-22T13:15:36;4.10;;;2.20;;
68025;SDS011;54819;48.030;14.710;2023-04-22T13:20:31;4.30;;;2.60;;
68025;SDS011;54819;48.030;14.710;2023-04-22T13:22:58;3.90;;;2.20;;
68025;SDS011;54819;48.030;14.710;2023-04-22T13:25:25;4.10;;;2.30;;
68025;SDS011;54819;48.030;14.710;2023-04-22T13:27:51;4.50;;;2.20;;
68025;SDS011;54819;48.030;14.710;2023-04-22T13:30:18;5.00;;;2.20;;
68025;SDS011;54819;48.030;14.710;2023-04-22T13:32:45;3.90;;;2.30;;
68025;SDS011;54819;48.030;14.710;2023-04-22T13:35:12;4.40;;;2.50;;
68025;SDS011;54819;48.030;14.710;2023-04-22T13:37:39;4.00;;;2.30;;
68025;SDS011;54819;48.030;14.710;2023-04-22T13:40:06;3.70;;;2.10;;
68025;SDS011;54819;48.030;14.710;2023-04-22T13:42:34;6.00;;;2.10;;
68025;SDS011;54819;48.030;14.710;2023-04-22T13:45:01;7.50;;;2.30;;
68025;SDS011;54819;48.030;14.710;2023-04-22T13:47:27;5.80;;;2.20;;
68025;SDS011;54819;48.030;14.710;2023-04-22T13:49:54;3.70;;;1.90;;
68025;SDS011;54819;48.030;14.710;2023-04-22T13:52:23;4.20;;;2.10;;
68025;SDS011;54819;48.030;14.710;2023-04-22T13:54:50;3.30;;;2.00;;
68025;SDS011;54819;48.030;14.710;2023-04-22T13:57:16;5.10;;;2.50;;
68025;SDS011;54819;48.030;14.710;2023-04-22T13:59:43;3.60;;;2.00;;
68025;SDS011;54819;48.030;14.710;2023-04-22T14:02:10;4.20;;;2.10;;
68025;SDS011;54819;48.030;14.710;2023-04-22T14:04:36;4.40;;;2.00;;
68025;SDS011;54819;48.030;14.710;2023-04-22T14:07:03;3.50;;;1.80;;
68025;SDS011;54819;48.030;14.710;2023-04-22T14:09:30;3.90;;;2.10;;
68025;SDS011;54819;48.030;14.710;2023-04-22T14:11:57;4.70;;;2.00;;
68025;SDS011;54819;48.030;14.710;2023-04-22T14:14:24;5.20;;;2.00;;
68025;SDS011;54819;48.030;14.710;2023-04-22T14:16:51;4.20;;;2.10;;
68025;SDS011;54819;48.030;14.710;2023-04-22T14:19:18;4.90;;;2.30;;
68025;SDS011;54819;48.030;14.710;2023-04-22T14:21:46;3.90;;;2.20;;
68025;SDS011;54819;48.030;14.710;2023-04-22T14:24:13;4.40;;;2.10;;
68025;SDS011;54819;48.030;14.710;2023-04-22T14:26:39;5.00;;;2.00;;
68025;SDS011;54819;48.030;14.710;2023-04-22T14:29:07;4.00;;;2.20;;
68025;SDS011;54819;48.030;14.710;2023-04-22T14:31:33;4.70;;;1.60;;
68025;SDS011;54819;48.030;14.710;2023-04-22T14:34:00;4.00;;;2.00;;
68025;SDS011;54819;48.030;14.710;2023-04-22T14:36:27;4.10;;;2.50;;
68025;SDS011;54819;48.030;14.710;2023-04-22T14:38:54;4.80;;;2.20;;
68025;SDS011;54819;48.030;14.710;2023-04-22T14:41:20;3.60;;;1.90;;
68025;SDS011;54819;48.030;14.710;2023-04-22T14:43:47;3.40;;;1.80;;
68025;SDS011;54819;48.030;14.710;2023-04-22T14:46:14;3.20;;;2.10;;
68025;SDS011;54819;48.030;14.710;2023-04-22T14:48:41;5.40;;;2.20;;
68025;SDS011;54819;48.030;14.710;2023-04-22T14:51:07;3.10;;;1.80;;
68025;SDS011;54819;48.030;14.710;2023-04-22T14:53:34;2.60;;;1.70;;
68025;SDS011;54819;48.030;14.710;2023-04-22T14:56:01;3.50;;;2.00;;
68025;SDS011;54819;48.030;14.710;2023-04-22T14:58:28;3.20;;;1.80;;
68025;SDS011;54819;48.030;14.710;2023-04-22T15:00:58;3.90;;;1.80;;
68025;SDS011;54819;48.030;14.710;2023-04-22T15:03:25;3.20;;;1.80;;
68025;SDS011;54819;48.030;14.710;2023-04-22T15:05:54;4.90;;;2.00;;
68025;SDS011;54819;48.030;14.710;2023-04-22T15:08:21;4.60;;;1.70;;
68025;SDS011;54819;48.030;14.710;2023-04-22T15:10:50;3.30;;;1.80;;
68025;SDS011;54819;48.030;14.710;2023-04-22T15:13:17;4.10;;;1.90;;
68025;SDS011;54819;48.030;14.710;2023-04-22T15:15:45;5.80;;;2.20;;
68025;SDS011;54819;48.030;14.710;2023-04-22T15:18:12;3.50;;;1.70;;
68025;SDS011;54819;48.030;14.710;2023-04-22T15:20:39;2.80;;;1.60;;
68025;SDS011;54819;48.030;14.710;2023-04-22T15:23:06;3.90;;;2.00;;
68025;SDS011;54819;48.030;14.710;2023-04-22T15:25:33;3.10;;;1.60;;
68025;SDS011;54819;48.030;14.710;2023-04-22T15:28:01;3.70;;;2.20;;
68025;SDS011;54819;48.030;14.710;2023-04-22T15:30:29;3.40;;;1.70;;
68025;SDS011;54819;48.030;14.710;2023-04-22T15:32:56;3.70;;;1.70;;
68025;SDS011;54819;48.030;14.710;2023-04-22T15:35:23;3.40;;;1.70;;